createdAt,value
2017-07-19T00:00:36.861Z,76.90
2017-07-19T00:03:04.310Z,77.30
2017-07-19T00:05:31.777Z,77.20
2017-07-19T00:08:00.033Z,77.10
2017-07-19T00:10:27.485Z,77.10
2017-07-19T00:12:54.949Z,77.50
2017-07-19T00:15:22.397Z,76.80
2017-07-19T00:17:49.871Z,77.00
2017-07-19T00:20:17.338Z,77.40
2017-07-19T00:22:44.794Z,78.30
2017-07-19T00:25:13.012Z,79.80
2017-07-19T00:27:40.493Z,79.10
2017-07-19T00:30:07.937Z,78.80
2017-07-19T00:32:35.398Z,78.10
2017-07-19T00:35:02.869Z,77.60
2017-07-19T00:37:30.435Z,78.30
2017-07-19T00:39:57.881Z,78.20
2017-07-19T00:42:25.329Z,77.30
2017-07-19T00:44:52.785Z,77.20
2017-07-19T00:47:20.238Z,76.70
2017-07-19T00:49:47.699Z,77.90
2017-07-19T00:52:15.154Z,78.20
2017-07-19T00:54:42.627Z,80.50
2017-07-19T00:57:10.069Z,81.20
2017-07-19T00:59:37.535Z,82.00
2017-07-19T01:02:04.985Z,82.00
2017-07-19T01:04:32.450Z,82.30
2017-07-19T01:06:59.897Z,80.80
2017-07-19T01:09:27.350Z,80.10
2017-07-19T01:11:54.798Z,80.20
2017-07-19T01:14:22.263Z,80.80
2017-07-19T01:16:49.714Z,80.40
2017-07-19T01:19:17.162Z,80.30
2017-07-19T01:21:44.655Z,80.20
2017-07-19T01:24:12.098Z,78.20
2017-07-19T01:26:39.549Z,77.90
2017-07-19T01:29:06.989Z,76.20
2017-07-19T01:31:34.445Z,77.60
2017-07-19T01:34:01.901Z,75.40
2017-07-19T01:36:29.369Z,76.50
2017-07-19T01:38:56.942Z,77.30
2017-07-19T01:41:24.390Z,78.70
2017-07-19T01:43:51.855Z,79.50
2017-07-19T01:46:19.314Z,78.60
2017-07-19T01:48:46.863Z,79.10
2017-07-19T01:51:14.422Z,78.70
2017-07-19T01:53:41.871Z,77.70
2017-07-19T01:56:09.317Z,75.90
2017-07-19T01:58:36.775Z,75.40
2017-07-19T02:01:04.218Z,74.00
2017-07-19T02:03:31.697Z,76.20
2017-07-19T02:05:59.150Z,75.10
2017-07-19T02:08:26.605Z,74.10
2017-07-19T02:10:54.041Z,74.10
2017-07-19T02:13:21.523Z,75.10
2017-07-19T02:15:48.967Z,74.80
2017-07-19T02:18:16.421Z,74.50
2017-07-19T02:20:43.882Z,74.40
2017-07-19T02:23:11.325Z,73.70
2017-07-19T02:25:38.795Z,73.50
2017-07-19T02:28:06.265Z,73.30
2017-07-19T02:30:33.718Z,74.10
2017-07-19T02:33:01.173Z,74.90
2017-07-19T02:35:28.630Z,74.30
2017-07-19T02:37:56.203Z,74.10
2017-07-19T02:40:23.750Z,73.20
2017-07-19T02:42:51.211Z,73.40
2017-07-19T02:45:18.661Z,73.50
2017-07-19T02:47:46.226Z,74.30
2017-07-19T02:50:13.673Z,74.10
2017-07-19T02:52:41.134Z,72.70
2017-07-19T02:55:08.594Z,72.20
2017-07-19T02:57:36.040Z,71.70
2017-07-19T03:00:03.490Z,73.20
2017-07-19T03:02:30.951Z,72.60
2017-07-19T03:04:58.401Z,74.10
2017-07-19T03:07:25.866Z,74.50
2017-07-19T03:09:56.204Z,73.50
2017-07-19T03:12:23.657Z,73.60
2017-07-19T03:14:51.120Z,74.40
2017-07-19T03:17:18.569Z,72.70
2017-07-19T03:19:46.030Z,74.00
2017-07-19T03:22:29.269Z,74.50
2017-07-19T03:24:57.506Z,76.40
2017-07-19T03:27:24.974Z,76.40
2017-07-19T03:29:52.425Z,75.10
2017-07-19T03:32:19.871Z,76.10
2017-07-19T03:34:47.324Z,74.50
2017-07-19T03:37:14.768Z,73.50
2017-07-19T03:39:42.238Z,72.00
2017-07-19T03:42:09.715Z,71.90
2017-07-19T03:44:37.170Z,72.30
2017-07-19T03:47:04.637Z,72.40
2017-07-19T03:49:32.082Z,72.30
2017-07-19T03:51:59.540Z,74.30
2017-07-19T03:54:26.987Z,72.90
2017-07-19T03:56:54.447Z,74.50
2017-07-19T03:59:21.890Z,73.40
2017-07-19T04:01:49.371Z,73.30
2017-07-19T04:04:16.831Z,73.10
2017-07-19T04:06:44.293Z,72.90
2017-07-19T04:09:11.743Z,72.60
2017-07-19T04:11:39.290Z,70.80
2017-07-19T04:14:06.845Z,70.90
2017-07-19T04:16:34.402Z,69.70
2017-07-19T04:19:01.854Z,69.60
2017-07-19T04:21:29.311Z,70.50
2017-07-19T04:23:56.765Z,71.00
2017-07-19T04:26:24.213Z,70.80
2017-07-19T04:28:51.691Z,69.70
2017-07-19T04:31:19.133Z,69.30
2017-07-19T04:33:46.702Z,71.30
2017-07-19T04:36:14.150Z,71.40
2017-07-19T04:38:41.615Z,68.00
2017-07-19T04:41:09.058Z,65.00
2017-07-19T04:43:36.501Z,64.40
2017-07-19T04:46:03.954Z,63.90
2017-07-19T04:48:31.450Z,64.90
2017-07-19T04:50:58.906Z,64.90
2017-07-19T04:53:26.359Z,67.40
2017-07-19T04:55:53.813Z,67.40
2017-07-19T04:58:21.261Z,65.70
2017-07-19T05:00:48.721Z,66.80
2017-07-19T05:03:16.158Z,67.10
2017-07-19T05:05:43.612Z,66.80
2017-07-19T05:08:11.059Z,68.80
2017-07-19T05:10:38.501Z,66.20
2017-07-19T05:13:06.003Z,66.90
2017-07-19T05:15:33.453Z,67.40
2017-07-19T05:18:01.014Z,68.20
2017-07-19T05:20:28.462Z,68.40
2017-07-19T05:22:55.935Z,65.20
2017-07-19T05:25:23.394Z,61.60
2017-07-19T05:27:50.853Z,61.50
2017-07-19T05:30:18.401Z,61.60
2017-07-19T05:32:45.967Z,60.10
2017-07-19T05:35:13.410Z,57.80
2017-07-19T05:37:40.863Z,56.70
2017-07-19T05:40:08.376Z,56.00
2017-07-19T05:42:35.830Z,55.00
2017-07-19T05:45:03.343Z,54.60
2017-07-19T05:47:30.790Z,53.30
2017-07-19T05:49:58.250Z,52.60
2017-07-19T05:52:25.693Z,51.50
2017-07-19T05:54:53.154Z,45.10
2017-07-19T05:57:20.627Z,44.10
2017-07-19T05:59:48.083Z,44.30
2017-07-19T06:02:15.529Z,42.90
2017-07-19T06:04:43.094Z,41.90
2017-07-19T06:07:10.554Z,39.80
2017-07-19T06:09:38.001Z,38.30
2017-07-19T06:12:05.461Z,35.80
2017-07-19T06:14:32.914Z,36.80
2017-07-19T06:17:00.365Z,35.70
2017-07-19T06:19:27.838Z,34.40
2017-07-19T06:21:55.294Z,35.50
2017-07-19T06:24:22.749Z,38.00
2017-07-19T06:26:50.310Z,38.70
2017-07-19T06:29:17.766Z,39.20
2017-07-19T06:31:45.321Z,42.70
2017-07-19T06:34:12.769Z,44.50
2017-07-19T06:36:40.212Z,45.00
2017-07-19T06:39:07.673Z,44.30
2017-07-19T06:41:35.145Z,43.60
2017-07-19T06:44:02.697Z,42.60
2017-07-19T06:46:30.156Z,42.80
2017-07-19T06:48:57.709Z,43.20
2017-07-19T06:51:25.163Z,44.70
2017-07-19T06:53:52.617Z,47.00
2017-07-19T06:56:20.067Z,49.90
2017-07-19T06:58:47.529Z,50.90
2017-07-19T07:01:14.997Z,51.70
2017-07-19T07:03:42.458Z,52.30
2017-07-19T07:06:09.899Z,52.70
2017-07-19T07:08:37.346Z,55.10
2017-07-19T07:11:04.801Z,55.50
2017-07-19T07:13:32.255Z,54.80
2017-07-19T07:15:59.713Z,53.00
2017-07-19T07:18:27.159Z,55.60
2017-07-19T07:20:54.618Z,56.70
2017-07-19T07:23:22.065Z,54.80
2017-07-19T07:25:49.525Z,55.90
2017-07-19T07:28:16.980Z,55.00
2017-07-19T07:30:44.441Z,56.20
2017-07-19T07:33:11.894Z,54.70
2017-07-19T07:35:39.377Z,54.80
2017-07-19T07:38:06.933Z,56.50
2017-07-19T07:40:34.381Z,56.30
2017-07-19T07:43:01.845Z,56.30
2017-07-19T07:45:29.297Z,56.00
2017-07-19T07:47:56.757Z,56.00
2017-07-19T07:50:24.225Z,55.70
2017-07-19T07:52:51.667Z,56.80
2017-07-19T07:55:19.129Z,56.10
2017-07-19T07:57:46.610Z,57.40
2017-07-19T08:00:14.056Z,57.80
2017-07-19T08:02:41.510Z,56.80
2017-07-19T08:05:08.957Z,54.10
2017-07-19T08:07:36.525Z,53.60
2017-07-19T08:10:03.974Z,53.30
2017-07-19T08:12:31.529Z,54.40
2017-07-19T08:14:59.090Z,52.80
2017-07-19T08:17:26.538Z,54.10
2017-07-19T08:19:54.101Z,52.50
2017-07-19T08:22:21.665Z,53.70
2017-07-19T08:24:49.118Z,53.70
2017-07-19T08:27:16.678Z,54.20
2017-07-19T08:29:44.139Z,53.70
2017-07-19T08:32:11.590Z,53.20
2017-07-19T08:34:39.051Z,53.50
2017-07-19T08:37:06.505Z,54.80
2017-07-19T08:39:33.953Z,53.00
2017-07-19T08:42:01.520Z,53.90
2017-07-19T08:44:28.957Z,53.00
2017-07-19T08:46:56.414Z,53.40
2017-07-19T08:49:23.894Z,53.30
2017-07-19T08:51:51.344Z,53.70
2017-07-19T08:54:18.801Z,52.70
2017-07-19T08:56:46.365Z,53.80
2017-07-19T08:59:13.811Z,55.10
2017-07-19T09:01:41.276Z,52.80
2017-07-19T09:04:08.731Z,52.00
2017-07-19T09:06:36.167Z,52.70
2017-07-19T09:09:03.629Z,51.30
2017-07-19T09:11:31.096Z,51.50
2017-07-19T09:13:58.546Z,52.70
2017-07-19T09:16:25.985Z,51.10
2017-07-19T09:18:53.464Z,51.40
2017-07-19T09:21:20.900Z,51.30
2017-07-19T09:23:48.357Z,50.70
2017-07-19T09:26:15.829Z,50.90
2017-07-19T09:28:43.281Z,50.60
2017-07-19T09:31:10.726Z,50.40
2017-07-19T09:33:38.296Z,50.70
2017-07-19T09:36:05.753Z,50.10
2017-07-19T09:38:33.310Z,49.80
2017-07-19T09:41:00.872Z,49.40
2017-07-19T09:43:28.428Z,48.90
2017-07-19T09:45:55.885Z,50.10
2017-07-19T09:48:23.441Z,51.00
2017-07-19T09:50:51.010Z,51.10
2017-07-19T09:53:18.462Z,49.80
2017-07-19T09:55:46.021Z,48.90
2017-07-19T09:58:13.465Z,49.80
2017-07-19T10:00:40.917Z,49.70
2017-07-19T10:03:08.393Z,49.00
2017-07-19T10:05:35.841Z,49.10
2017-07-19T10:08:03.298Z,49.50
2017-07-19T10:10:30.765Z,48.80
2017-07-19T10:12:58.210Z,48.70
2017-07-19T10:15:25.665Z,48.70
2017-07-19T10:17:53.131Z,48.30
2017-07-19T10:20:20.582Z,48.50
2017-07-19T10:22:48.143Z,48.20
2017-07-19T10:25:15.604Z,47.00
2017-07-19T10:27:43.063Z,47.10
2017-07-19T10:30:10.509Z,46.50
2017-07-19T10:32:37.965Z,45.30
2017-07-19T10:35:05.536Z,46.00
2017-07-19T10:37:32.989Z,46.40
2017-07-19T10:40:00.441Z,44.90
2017-07-19T10:42:27.901Z,46.60
2017-07-19T10:44:55.349Z,45.20
2017-07-19T10:47:22.800Z,45.40
2017-07-19T10:49:50.250Z,46.50
2017-07-19T10:52:17.707Z,44.50
2017-07-19T10:54:45.164Z,42.80
2017-07-19T10:57:12.631Z,41.80
2017-07-19T10:59:40.075Z,39.70
2017-07-19T11:02:13.309Z,42.40
2017-07-19T11:04:41.557Z,39.90
2017-07-19T11:07:09.015Z,40.00
2017-07-19T11:09:36.463Z,40.70
2017-07-19T11:12:03.917Z,41.60
2017-07-19T11:14:31.369Z,40.90
2017-07-19T11:16:58.933Z,39.60
2017-07-19T11:19:26.493Z,41.00
2017-07-19T11:21:53.973Z,39.60
2017-07-19T11:24:21.513Z,37.90
2017-07-19T11:26:48.973Z,38.50
2017-07-19T11:29:16.517Z,39.70
2017-07-19T11:31:43.961Z,39.20
2017-07-19T11:34:11.421Z,37.50
2017-07-19T11:36:38.878Z,39.10
2017-07-19T11:39:06.334Z,40.00
2017-07-19T11:41:33.773Z,39.20
2017-07-19T11:44:01.231Z,39.10
2017-07-19T11:46:28.680Z,39.90
2017-07-19T11:48:56.130Z,39.80
2017-07-19T11:51:23.635Z,37.40
2017-07-19T11:53:51.106Z,36.80
2017-07-19T11:56:18.538Z,37.00
2017-07-19T11:58:45.993Z,38.10
2017-07-19T12:01:13.433Z,37.60
2017-07-19T12:03:40.910Z,35.70
2017-07-19T12:06:08.353Z,35.40
2017-07-19T12:08:35.933Z,37.00
2017-07-19T12:11:03.382Z,36.10
2017-07-19T12:13:30.836Z,38.00
2017-07-19T12:15:58.399Z,34.80
2017-07-19T12:18:25.921Z,41.10
2017-07-19T12:20:53.409Z,37.40
2017-07-19T12:23:20.853Z,37.70
2017-07-19T12:25:48.417Z,36.90
2017-07-19T12:28:15.887Z,36.00
2017-07-19T12:30:43.338Z,39.80
2017-07-19T12:33:10.782Z,39.10
2017-07-19T12:35:38.241Z,39.60
2017-07-19T12:38:05.685Z,37.60
2017-07-19T12:40:33.169Z,36.80
2017-07-19T12:43:00.610Z,37.60
2017-07-19T12:45:28.074Z,38.50
2017-07-19T12:47:55.629Z,36.70
2017-07-19T12:50:23.092Z,37.30
2017-07-19T12:52:50.542Z,37.80
2017-07-19T12:55:18.010Z,34.00
2017-07-19T12:57:45.452Z,36.50
2017-07-19T13:00:12.901Z,35.20
2017-07-19T13:02:40.362Z,36.90
2017-07-19T13:05:07.814Z,34.30
2017-07-19T13:07:35.265Z,35.50
2017-07-19T13:10:02.747Z,35.80
2017-07-19T13:12:30.203Z,37.50
2017-07-19T13:14:57.650Z,36.70
2017-07-19T13:17:25.102Z,36.50
2017-07-19T13:19:52.661Z,35.60
2017-07-19T13:22:20.997Z,34.40
2017-07-19T13:24:48.497Z,36.20
2017-07-19T13:27:15.957Z,35.80
2017-07-19T13:29:43.481Z,37.00
2017-07-19T13:32:10.925Z,36.30
2017-07-19T13:34:38.380Z,35.80
2017-07-19T13:37:05.831Z,36.30
2017-07-19T13:39:33.283Z,35.00
2017-07-19T13:42:00.733Z,35.60
2017-07-19T13:44:28.266Z,35.30
2017-07-19T13:46:55.814Z,38.00
2017-07-19T13:49:23.269Z,33.90
2017-07-19T13:51:50.713Z,34.90
2017-07-19T13:54:18.172Z,34.90
2017-07-19T13:56:45.611Z,35.20
2017-07-19T13:59:13.059Z,37.60
2017-07-19T14:01:40.528Z,35.70
2017-07-19T14:04:07.986Z,38.10
2017-07-19T14:06:35.429Z,39.80
2017-07-19T14:09:02.881Z,40.20
2017-07-19T14:11:30.343Z,41.00
2017-07-19T14:13:57.803Z,41.70
2017-07-19T14:16:25.281Z,42.60
2017-07-19T14:18:52.733Z,42.00
2017-07-19T14:21:20.305Z,42.50
2017-07-19T14:23:47.762Z,43.10
2017-07-19T14:26:15.209Z,43.00
2017-07-19T14:28:42.657Z,42.70
2017-07-19T14:31:10.107Z,42.10
2017-07-19T14:33:37.577Z,42.50
2017-07-19T14:36:05.014Z,42.70
2017-07-19T14:38:32.488Z,42.80
2017-07-19T14:41:00.046Z,42.90
2017-07-19T14:43:27.492Z,42.20
2017-07-19T14:45:54.965Z,41.10
2017-07-19T14:48:22.409Z,41.50
2017-07-19T14:50:49.865Z,42.00
2017-07-19T14:53:17.313Z,40.30
2017-07-19T14:55:44.781Z,40.90
2017-07-19T14:58:12.230Z,39.90
2017-07-19T15:00:39.681Z,40.80
2017-07-19T15:03:07.153Z,39.90
2017-07-19T15:05:34.609Z,39.50
2017-07-19T15:08:02.180Z,38.90
2017-07-19T15:10:29.630Z,40.20
2017-07-19T15:12:57.178Z,40.10
2017-07-19T15:15:24.639Z,39.30
2017-07-19T15:17:52.087Z,40.10
2017-07-19T15:20:19.541Z,39.90
2017-07-19T15:22:46.990Z,40.40
2017-07-19T15:25:14.470Z,39.50
2017-07-19T15:27:41.930Z,39.90
2017-07-19T15:30:10.143Z,39.40
2017-07-19T15:32:37.662Z,39.50
2017-07-19T15:35:05.117Z,39.80
2017-07-19T15:37:32.574Z,39.20
2017-07-19T15:40:00.122Z,40.00
2017-07-19T15:42:27.573Z,40.10
2017-07-19T15:44:55.027Z,40.30
2017-07-19T15:47:22.498Z,39.70
2017-07-19T15:49:50.176Z,38.70
2017-07-19T15:52:17.722Z,38.90
2017-07-19T15:54:45.172Z,39.70
2017-07-19T15:57:12.633Z,39.00
2017-07-19T15:59:40.101Z,39.90
2017-07-19T16:02:07.534Z,38.50
2017-07-19T16:04:34.989Z,39.00
2017-07-19T16:07:02.442Z,40.20
2017-07-19T16:09:30.005Z,38.70
2017-07-19T16:11:57.445Z,40.00
2017-07-19T16:14:24.906Z,38.50
2017-07-19T16:16:52.382Z,38.20
2017-07-19T16:19:19.934Z,38.40
2017-07-19T16:21:47.460Z,40.00
2017-07-19T16:24:14.958Z,39.50
2017-07-19T16:26:42.414Z,39.80
2017-07-19T16:29:09.957Z,39.90
2017-07-19T16:31:37.527Z,38.40
2017-07-19T16:34:05.074Z,38.70
2017-07-19T16:36:32.541Z,39.60
2017-07-19T16:38:59.992Z,39.70
2017-07-19T16:41:27.463Z,38.00
2017-07-19T16:43:54.924Z,39.00
2017-07-19T16:46:23.151Z,41.00
2017-07-19T16:48:50.610Z,41.10
2017-07-19T16:51:18.058Z,38.60
2017-07-19T16:53:45.509Z,39.30
2017-07-19T16:56:13.037Z,39.40
2017-07-19T16:58:40.490Z,39.20
2017-07-19T17:01:08.717Z,39.70
2017-07-19T17:03:36.195Z,39.40
2017-07-19T17:06:03.750Z,40.10
2017-07-19T17:08:31.197Z,39.80
2017-07-19T17:10:58.657Z,40.70
2017-07-19T17:13:26.217Z,40.70
2017-07-19T17:15:53.773Z,41.10
2017-07-19T17:18:21.241Z,40.80
2017-07-19T17:20:48.685Z,41.80
2017-07-19T17:23:16.142Z,41.80
2017-07-19T17:25:43.618Z,41.90
2017-07-19T17:28:11.165Z,42.60
2017-07-19T17:30:38.621Z,43.20
2017-07-19T17:33:06.066Z,42.90
2017-07-19T17:35:33.624Z,44.10
2017-07-19T17:38:01.074Z,44.70
2017-07-19T17:40:28.661Z,45.60
2017-07-19T17:42:56.112Z,45.50
2017-07-19T17:45:23.576Z,46.20
2017-07-19T17:47:51.024Z,46.40
2017-07-19T17:50:18.492Z,45.60
2017-07-19T17:52:45.933Z,46.10
2017-07-19T17:55:13.388Z,45.80
2017-07-19T17:57:40.854Z,45.80
2017-07-19T18:00:08.308Z,46.40
2017-07-19T18:02:35.761Z,46.60
2017-07-19T18:05:03.212Z,46.60
2017-07-19T18:07:30.669Z,46.80
2017-07-19T18:09:58.125Z,46.20
2017-07-19T18:12:25.689Z,46.40
2017-07-19T18:14:53.128Z,46.60
2017-07-19T18:17:21.922Z,46.70
2017-07-19T18:19:49.365Z,46.90
2017-07-19T18:22:16.821Z,46.70
2017-07-19T18:24:44.302Z,47.60
2017-07-19T18:27:11.754Z,47.60
2017-07-19T18:29:39.209Z,47.80
2017-07-19T18:32:06.760Z,48.00
2017-07-19T18:34:37.002Z,48.60
2017-07-19T18:37:04.606Z,48.30
2017-07-19T18:39:32.102Z,48.70
2017-07-19T18:41:59.657Z,49.10
2017-07-19T18:44:27.138Z,49.70
2017-07-19T18:46:55.758Z,49.90
2017-07-19T18:49:23.245Z,50.40
2017-07-19T18:51:50.699Z,50.20
2017-07-19T18:54:18.164Z,50.70
2017-07-19T18:56:45.622Z,51.10
2017-07-19T18:59:13.207Z,51.10
2017-07-19T19:01:41.487Z,51.80
2017-07-19T19:04:08.926Z,51.70
2017-07-19T19:06:36.383Z,51.40
2017-07-19T19:09:04.798Z,51.90
2017-07-19T19:11:32.253Z,52.20
2017-07-19T19:13:59.709Z,52.20
2017-07-19T19:16:27.180Z,52.50
2017-07-19T19:18:54.628Z,53.30
2017-07-19T19:21:22.124Z,53.40
2017-07-19T19:23:49.594Z,54.70
2017-07-19T19:26:17.042Z,54.70
2017-07-19T19:28:44.603Z,54.70
2017-07-19T19:31:12.107Z,54.60
2017-07-19T19:33:39.559Z,55.10
2017-07-19T19:36:07.065Z,55.00
2017-07-19T19:38:34.523Z,55.80
2017-07-19T19:41:01.983Z,56.10
2017-07-19T19:43:29.438Z,54.90
2017-07-19T19:45:56.890Z,55.70
2017-07-19T19:48:24.352Z,55.60
2017-07-19T19:50:51.905Z,56.50
2017-07-19T19:53:19.357Z,57.10
2017-07-19T19:55:46.817Z,56.60
2017-07-19T19:58:14.261Z,56.20
2017-07-19T20:00:41.722Z,56.10
2017-07-19T20:03:09.182Z,56.20
2017-07-19T20:05:36.757Z,56.60
2017-07-19T20:08:04.231Z,56.60
2017-07-19T20:10:31.687Z,56.60
2017-07-19T20:12:59.920Z,57.10
2017-07-19T20:15:27.403Z,57.00
2017-07-19T20:17:54.858Z,58.30
2017-07-19T20:20:22.313Z,59.00
2017-07-19T20:22:49.778Z,58.10
2017-07-19T20:25:17.234Z,58.60
2017-07-19T20:27:44.682Z,57.30
2017-07-19T20:30:12.124Z,56.20
2017-07-19T20:32:39.693Z,53.50
2017-07-19T20:35:07.150Z,52.90
2017-07-19T20:37:34.608Z,53.70
2017-07-19T20:40:02.163Z,63.80
2017-07-19T20:42:29.639Z,70.30
2017-07-19T20:44:57.093Z,73.90
2017-07-19T20:47:24.627Z,75.50
2017-07-19T20:49:52.073Z,79.10
2017-07-19T20:52:19.558Z,78.30
2017-07-19T20:54:47.005Z,81.50
2017-07-19T20:57:14.553Z,82.00
2017-07-19T20:59:42.126Z,83.00
2017-07-19T21:02:09.574Z,83.40
2017-07-19T21:04:37.025Z,81.90
2017-07-19T21:07:04.469Z,81.40
2017-07-19T21:09:33.292Z,82.00
2017-07-19T21:12:02.314Z,83.60
2017-07-19T21:14:29.816Z,83.50
2017-07-19T21:16:57.297Z,82.90
2017-07-19T21:19:24.785Z,83.50
2017-07-19T21:21:53.034Z,84.00
2017-07-19T21:24:20.620Z,84.00
2017-07-19T21:26:48.863Z,84.20
2017-07-19T21:29:16.342Z,84.30
2017-07-19T21:31:44.626Z,85.10
2017-07-19T21:34:12.872Z,84.80
2017-07-19T21:36:40.357Z,84.80
2017-07-19T21:39:08.813Z,84.40
2017-07-19T21:41:36.392Z,84.40
2017-07-19T21:44:03.867Z,83.80
2017-07-19T21:46:31.417Z,84.60
2017-07-19T21:48:58.996Z,84.20
2017-07-19T21:51:26.510Z,83.50
2017-07-19T21:53:53.979Z,83.50
2017-07-19T21:56:22.246Z,83.60
2017-07-19T21:58:50.503Z,82.40
2017-07-19T22:02:38.777Z,82.20
2017-07-19T22:05:07.027Z,82.20
2017-07-19T22:07:34.538Z,82.10
2017-07-19T22:10:02.029Z,83.40
2017-07-19T22:12:29.511Z,83.20
2017-07-19T22:14:57.780Z,84.30
2017-07-19T22:17:25.267Z,84.20
2017-07-19T22:19:52.753Z,84.00
2017-07-19T22:22:20.240Z,84.00
2017-07-19T22:24:47.727Z,84.50
2017-07-19T22:27:16.011Z,88.50
2017-07-19T22:29:44.280Z,88.40
2017-07-19T22:32:12.559Z,89.60
2017-07-19T22:34:40.828Z,90.00
2017-07-19T22:37:09.067Z,89.50
2017-07-19T22:39:36.558Z,89.30
2017-07-19T22:42:04.820Z,88.70
2017-07-19T22:44:32.387Z,88.70
2017-07-19T22:47:00.668Z,89.00
2017-07-19T22:49:28.944Z,90.20
2017-07-19T22:51:57.197Z,91.80
2017-07-19T22:54:24.780Z,91.40
2017-07-19T22:56:53.034Z,94.30
2017-07-19T22:59:20.512Z,94.30
2017-07-19T23:01:48.789Z,96.00
2017-07-19T23:04:17.044Z,96.70
2017-07-19T23:06:44.550Z,96.70
2017-07-19T23:09:12.035Z,97.30
2017-07-19T23:11:39.518Z,97.70
2017-07-19T23:14:07.011Z,97.60
2017-07-19T23:16:34.499Z,97.00
2017-07-19T23:19:02.010Z,96.70
2017-07-19T23:21:29.555Z,96.80
2017-07-19T23:23:57.849Z,97.80
2017-07-19T23:26:25.387Z,97.40
2017-07-19T23:28:53.641Z,97.50
2017-07-19T23:31:21.232Z,97.50
2017-07-19T23:33:49.500Z,97.60
2017-07-19T23:36:17.779Z,98.00
2017-07-19T23:38:46.023Z,97.90
2017-07-19T23:41:13.511Z,97.90
2017-07-19T23:43:41.761Z,98.30
2017-07-19T23:46:09.247Z,98.30
2017-07-19T23:48:37.502Z,97.90
2017-07-19T23:51:04.991Z,97.90
2017-07-19T23:53:32.471Z,97.90
2017-07-19T23:55:59.996Z,97.80
2017-07-19T23:58:28.246Z,97.90
